Time;durP1;ratioP1;P1;durP2;ratioP2;P2;SDS_P1;SDS_P2;PMS_P1;PMS_P2;Temp;Humidity;BMP_temperature;BMP_pressure;BME280_temperature;BME280_humidity;BME280_pressure;Samples;Min_cycle;Max_cycle;Signal;HPM_P1;HPM_P2
2022/01/31 00:00:28;;;;;;;66.60;37.35;;;;;;;;;;6280850;28;20048;-65
2022/01/31 00:03:33;;;;;;;68.43;39.13;;;;;;;;;;6283787;28;20185;-65
2022/01/31 00:06:35;;;;;;;71.07;38.03;;;;;;;;;;6284540;28;20118;-65
2022/01/31 00:09:39;;;;;;;67.88;38.08;;;;;;;;;;6279225;28;20222;-65
2022/01/31 00:12:50;;;;;;;68.43;38.35;;;;;;;;;;6280496;28;20409;-65
2022/01/31 00:15:55;;;;;;;66.20;38.78;;;;;;;;;;6280560;28;20128;-64
2022/01/31 00:18:57;;;;;;;73.88;38.28;;;;;;;;;;6284747;28;20076;-66
2022/01/31 00:21:59;;;;;;;68.22;38.65;;;;;;;;;;6281490;28;20104;-65
2022/01/31 00:25:02;;;;;;;67.22;38.20;;;;;;;;;;6280390;28;20087;-65
2022/01/31 00:28:04;;;;;;;71.13;38.22;;;;;;;;;;6274952;28;20090;-65
2022/01/31 00:31:05;;;;;;;68.03;37.22;;;;;;;;;;6278855;28;20110;-67
2022/01/31 00:34:07;;;;;;;64.65;36.75;;;;;;;;;;6278189;28;20727;-65
2022/01/31 00:37:09;;;;;;;67.15;37.70;;;;;;;;;;6282991;28;20131;-65
2022/01/31 00:40:12;;;;;;;63.47;37.17;;;;;;;;;;6277276;28;20095;-65
2022/01/31 00:43:15;;;;;;;69.53;36.83;;;;;;;;;;6286522;28;20052;-65
2022/01/31 00:46:23;;;;;;;67.30;37.50;;;;;;;;;;6284598;28;20040;-65
2022/01/31 00:49:37;;;;;;;66.22;36.58;;;;;;;;;;6286512;28;20071;-65
2022/01/31 00:52:41;;;;;;;66.45;37.60;;;;;;;;;;6281655;28;20053;-65
2022/01/31 00:55:44;;;;;;;66.50;37.05;;;;;;;;;;6283807;28;20125;-65
2022/01/31 00:58:45;;;;;;;92.40;39.70;;;;;;;;;;6291464;28;20099;-66
2022/01/31 01:01:47;;;;;;;66.07;37.20;;;;;;;;;;6285337;28;20084;-65
2022/01/31 01:04:49;;;;;;;65.35;35.60;;;;;;;;;;6281057;28;20187;-65
2022/01/31 01:07:51;;;;;;;64.90;35.70;;;;;;;;;;6285839;28;20556;-65
2022/01/31 01:10:54;;;;;;;65.28;35.88;;;;;;;;;;6281500;28;20067;-65
2022/01/31 01:13:55;;;;;;;71.05;36.63;;;;;;;;;;6279016;28;20045;-65
2022/01/31 01:16:57;;;;;;;67.93;34.70;;;;;;;;;;6281545;28;20119;-65
2022/01/31 01:19:59;;;;;;;61.70;35.80;;;;;;;;;;6278619;28;20041;-66
2022/01/31 01:23:00;;;;;;;63.83;35.65;;;;;;;;;;6282400;28;20182;-65
2022/01/31 01:26:04;;;;;;;60.30;34.92;;;;;;;;;;6283177;28;20475;-65
2022/01/31 01:29:05;;;;;;;62.80;34.33;;;;;;;;;;6279576;28;20056;-65
2022/01/31 01:32:09;;;;;;;62.47;33.55;;;;;;;;;;6282929;28;20071;-65
2022/01/31 01:35:11;;;;;;;65.78;36.35;;;;;;;;;;6283495;28;20057;-65
2022/01/31 01:38:15;;;;;;;64.18;35.28;;;;;;;;;;6280842;28;20092;-65
2022/01/31 01:41:18;;;;;;;65.00;35.03;;;;;;;;;;6277280;28;20520;-65
2022/01/31 01:44:20;;;;;;;60.20;34.05;;;;;;;;;;6279968;28;20501;-65
2022/01/31 01:47:23;;;;;;;63.67;34.80;;;;;;;;;;6279305;28;20540;-65
2022/01/31 01:50:24;;;;;;;63.78;34.65;;;;;;;;;;6278606;28;20193;-65
2022/01/31 01:53:26;;;;;;;56.92;34.13;;;;;;;;;;6283217;28;20107;-65
2022/01/31 01:56:29;;;;;;;63.42;33.40;;;;;;;;;;6288587;28;20079;-65
2022/01/31 01:59:33;;;;;;;67.53;35.88;;;;;;;;;;6283021;28;20135;-65
2022/01/31 02:02:35;;;;;;;63.33;34.10;;;;;;;;;;6280363;28;20308;-65
2022/01/31 02:05:37;;;;;;;62.15;34.45;;;;;;;;;;6282226;28;20040;-65
2022/01/31 02:08:43;;;;;;;62.20;34.42;;;;;;;;;;6280209;28;20132;-65
2022/01/31 02:11:46;;;;;;;64.05;33.42;;;;;;;;;;6282153;28;20064;-66
2022/01/31 02:14:47;;;;;;;59.92;33.83;;;;;;;;;;6283447;28;20056;-65
2022/01/31 02:17:49;;;;;;;60.28;33.05;;;;;;;;;;6278575;28;20075;-65
2022/01/31 02:20:52;;;;;;;65.55;34.83;;;;;;;;;;6277620;28;20574;-65
2022/01/31 02:23:53;;;;;;;66.95;35.10;;;;;;;;;;6275864;28;20091;-65
2022/01/31 02:26:55;;;;;;;63.83;34.95;;;;;;;;;;6287861;28;20128;-64
2022/01/31 02:29:57;;;;;;;63.70;35.33;;;;;;;;;;6299386;28;20563;-66
2022/01/31 02:32:58;;;;;;;59.78;32.85;;;;;;;;;;6283453;28;20105;-65
2022/01/31 02:36:03;;;;;;;63.33;35.08;;;;;;;;;;6277527;28;20106;-65
2022/01/31 02:39:05;;;;;;;65.95;34.92;;;;;;;;;;6276230;28;20118;-65
2022/01/31 02:42:08;;;;;;;65.57;34.53;;;;;;;;;;6282085;28;20052;-65
2022/01/31 02:45:09;;;;;;;60.58;32.40;;;;;;;;;;6279214;28;20417;-65
2022/01/31 02:48:13;;;;;;;59.15;32.95;;;;;;;;;;6279523;28;20457;-65
2022/01/31 02:51:21;;;;;;;63.40;32.90;;;;;;;;;;6275420;28;20621;-65
2022/01/31 02:54:22;;;;;;;58.85;33.15;;;;;;;;;;6275483;28;20082;-65
2022/01/31 02:57:24;;;;;;;57.95;33.17;;;;;;;;;;6280719;28;20430;-65
2022/01/31 03:00:25;;;;;;;61.47;33.33;;;;;;;;;;6278587;28;20093;-66
2022/01/31 03:03:27;;;;;;;62.22;33.90;;;;;;;;;;6272016;28;20097;-66
2022/01/31 03:06:30;;;;;;;62.20;32.78;;;;;;;;;;6279634;28;20045;-65
2022/01/31 03:09:32;;;;;;;59.13;32.60;;;;;;;;;;6283223;28;20126;-66
2022/01/31 03:12:33;;;;;;;61.90;33.10;;;;;;;;;;6278200;28;20135;-67
2022/01/31 03:15:35;;;;;;;61.53;34.42;;;;;;;;;;6280239;28;20076;-64
2022/01/31 03:18:37;;;;;;;65.78;34.63;;;;;;;;;;6272754;28;20286;-65
2022/01/31 03:21:40;;;;;;;61.72;34.40;;;;;;;;;;6273306;28;20507;-66
2022/01/31 03:24:43;;;;;;;62.50;33.42;;;;;;;;;;6272339;28;20037;-65
2022/01/31 03:27:46;;;;;;;65.10;35.33;;;;;;;;;;6280871;28;20041;-65
2022/01/31 03:30:48;;;;;;;59.50;35.00;;;;;;;;;;6272440;28;20511;-64
2022/01/31 03:33:50;;;;;;;60.20;34.63;;;;;;;;;;6276959;28;20202;-65
2022/01/31 03:36:53;;;;;;;61.65;34.60;;;;;;;;;;6284942;28;20088;-65
2022/01/31 03:39:54;;;;;;;61.47;33.53;;;;;;;;;;6279588;28;20397;-65
2022/01/31 03:42:56;;;;;;;67.10;36.00;;;;;;;;;;6281291;28;20179;-65
2022/01/31 03:45:58;;;;;;;65.45;35.53;;;;;;;;;;6280570;28;20183;-64
2022/01/31 03:48:59;;;;;;;63.15;34.33;;;;;;;;;;6280456;28;20053;-65
2022/01/31 03:52:02;;;;;;;63.72;34.63;;;;;;;;;;6276422;28;20045;-65
2022/01/31 03:55:04;;;;;;;64.03;35.17;;;;;;;;;;6278952;28;20076;-65
2022/01/31 03:58:06;;;;;;;61.55;35.13;;;;;;;;;;6281713;28;20061;-65
2022/01/31 04:01:08;;;;;;;67.93;37.70;;;;;;;;;;6288849;28;20131;-65
2022/01/31 04:04:10;;;;;;;68.78;35.85;;;;;;;;;;6283445;28;20117;-67
2022/01/31 04:07:13;;;;;;;63.42;35.83;;;;;;;;;;6280246;28;20049;-65
2022/01/31 04:10:15;;;;;;;64.60;34.58;;;;;;;;;;6278393;28;20074;-65
2022/01/31 04:13:18;;;;;;;66.05;35.95;;;;;;;;;;6286322;28;20190;-66
2022/01/31 04:16:19;;;;;;;67.25;34.97;;;;;;;;;;6282511;28;20045;-65
2022/01/31 04:19:21;;;;;;;65.22;33.63;;;;;;;;;;6289768;28;20396;-64
2022/01/31 04:22:27;;;;;;;67.05;37.20;;;;;;;;;;6281918;28;20183;-65
2022/01/31 04:25:31;;;;;;;64.47;35.80;;;;;;;;;;6283882;28;20056;-65
2022/01/31 04:28:40;;;;;;;65.43;36.30;;;;;;;;;;6281979;28;20053;-65
2022/01/31 04:31:49;;;;;;;67.97;35.42;;;;;;;;;;6276699;28;20052;-65
2022/01/31 04:34:50;;;;;;;67.28;35.95;;;;;;;;;;6280151;28;20045;-64
2022/01/31 04:37:53;;;;;;;62.95;34.95;;;;;;;;;;6278015;28;20101;-65
2022/01/31 04:40:55;;;;;;;66.38;35.72;;;;;;;;;;6280243;28;20053;-65
2022/01/31 04:44:01;;;;;;;59.72;33.88;;;;;;;;;;6281020;28;20079;-65
2022/01/31 04:47:03;;;;;;;64.78;35.78;;;;;;;;;;6279833;28;20059;-65
2022/01/31 04:50:06;;;;;;;64.00;35.20;;;;;;;;;;6278169;28;20075;-66
2022/01/31 04:53:09;;;;;;;70.25;35.15;;;;;;;;;;6284507;28;20088;-65
2022/01/31 04:56:11;;;;;;;61.85;34.70;;;;;;;;;;6283340;28;20537;-65
2022/01/31 04:59:12;;;;;;;70.97;36.03;;;;;;;;;;6282151;28;20171;-65
2022/01/31 05:02:14;;;;;;;68.03;36.15;;;;;;;;;;6282708;28;20045;-65
2022/01/31 05:05:15;;;;;;;64.13;35.22;;;;;;;;;;6283146;28;20175;-66
2022/01/31 05:08:24;;;;;;;70.47;35.80;;;;;;;;;;6279569;28;20045;-65
2022/01/31 05:11:26;;;;;;;68.75;35.00;;;;;;;;;;6281246;28;20045;-65
2022/01/31 05:14:27;;;;;;;62.13;34.85;;;;;;;;;;6280205;28;20090;-65
2022/01/31 05:17:29;;;;;;;64.82;35.72;;;;;;;;;;6280270;28;20127;-65
2022/01/31 05:20:30;;;;;;;67.28;36.20;;;;;;;;;;6276207;28;20072;-65
2022/01/31 05:23:34;;;;;;;61.72;35.25;;;;;;;;;;6278399;28;20079;-65
2022/01/31 05:26:36;;;;;;;75.97;37.55;;;;;;;;;;6276183;28;20045;-65
2022/01/31 05:29:37;;;;;;;64.68;36.30;;;;;;;;;;6279775;28;20140;-67
2022/01/31 05:32:39;;;;;;;67.85;36.08;;;;;;;;;;6279715;28;20131;-64
2022/01/31 05:35:40;;;;;;;65.88;35.20;;;;;;;;;;6279731;28;20080;-65
2022/01/31 05:38:44;;;;;;;64.90;35.65;;;;;;;;;;6280487;28;20049;-65
2022/01/31 05:41:46;;;;;;;71.10;36.85;;;;;;;;;;6279638;28;20087;-65
2022/01/31 05:44:47;;;;;;;67.82;35.75;;;;;;;;;;6280688;28;20131;-65
2022/01/31 05:47:49;;;;;;;66.47;36.17;;;;;;;;;;6281652;28;20256;-65
2022/01/31 05:50:51;;;;;;;63.50;35.65;;;;;;;;;;6281960;28;20163;-65
2022/01/31 05:53:53;;;;;;;67.68;36.40;;;;;;;;;;6279711;28;20119;-64
2022/01/31 05:56:56;;;;;;;65.07;35.83;;;;;;;;;;6283840;28;20119;-64
2022/01/31 05:59:57;;;;;;;67.80;36.03;;;;;;;;;;6278091;28;20670;-64
2022/01/31 06:03:00;;;;;;;67.57;35.33;;;;;;;;;;6281486;28;20514;-64
2022/01/31 06:06:02;;;;;;;70.57;36.05;;;;;;;;;;6277587;28;20134;-65
2022/01/31 06:09:05;;;;;;;70.03;37.47;;;;;;;;;;6279737;28;20433;-64
2022/01/31 06:12:10;;;;;;;67.53;35.05;;;;;;;;;;6277118;28;20041;-65
2022/01/31 06:15:12;;;;;;;63.70;35.03;;;;;;;;;;6279884;28;20405;-66
2022/01/31 06:18:13;;;;;;;68.90;34.08;;;;;;;;;;6275162;28;20142;-65
2022/01/31 06:21:15;;;;;;;66.93;34.85;;;;;;;;;;6277806;28;20235;-65
2022/01/31 06:24:18;;;;;;;67.55;36.22;;;;;;;;;;6280101;28;20128;-65
2022/01/31 06:27:20;;;;;;;67.30;36.55;;;;;;;;;;6280183;28;20515;-64
2022/01/31 06:30:21;;;;;;;65.20;34.50;;;;;;;;;;6279232;28;20120;-64
2022/01/31 06:33:23;;;;;;;71.53;37.60;;;;;;;;;;6274853;28;20141;-64
2022/01/31 06:36:24;;;;;;;60.45;34.65;;;;;;;;;;6283445;28;20145;-65
2022/01/31 06:39:27;;;;;;;74.20;37.25;;;;;;;;;;6279908;28;20486;-65
2022/01/31 06:42:29;;;;;;;69.15;35.72;;;;;;;;;;6276277;28;20528;-64
2022/01/31 06:45:31;;;;;;;67.82;36.25;;;;;;;;;;6278868;28;20200;-65
2022/01/31 06:48:32;;;;;;;63.75;35.25;;;;;;;;;;6277550;28;20056;-65
2022/01/31 06:51:34;;;;;;;64.65;35.22;;;;;;;;;;6279668;28;20187;-65
2022/01/31 06:54:37;;;;;;;73.35;36.38;;;;;;;;;;6270939;28;20056;-65
2022/01/31 06:57:38;;;;;;;67.32;36.78;;;;;;;;;;6273662;28;20048;-66
2022/01/31 07:00:40;;;;;;;66.90;36.70;;;;;;;;;;6273839;28;20124;-65
2022/01/31 07:03:41;;;;;;;71.63;38.28;;;;;;;;;;6278794;28;20136;-64
2022/01/31 07:06:43;;;;;;;69.65;36.30;;;;;;;;;;6276187;28;20506;-65
2022/01/31 07:09:46;;;;;;;63.58;35.45;;;;;;;;;;6276936;28;20119;-65
2022/01/31 07:12:52;;;;;;;66.95;34.67;;;;;;;;;;6278441;28;20551;-65
2022/01/31 07:15:54;;;;;;;69.85;34.17;;;;;;;;;;6281441;28;20076;-64
2022/01/31 07:19:02;;;;;;;66.00;36.03;;;;;;;;;;6284192;28;20126;-64
2022/01/31 07:22:07;;;;;;;66.28;36.65;;;;;;;;;;6278317;28;20308;-64
2022/01/31 07:25:21;;;;;;;64.95;36.92;;;;;;;;;;6284232;28;20060;-64
2022/01/31 07:28:23;;;;;;;61.28;34.33;;;;;;;;;;6278016;28;20041;-65
2022/01/31 07:31:25;;;;;;;66.25;35.75;;;;;;;;;;6276474;28;20099;-65
2022/01/31 07:34:26;;;;;;;60.58;34.25;;;;;;;;;;6275564;28;20083;-64
2022/01/31 07:37:28;;;;;;;65.28;34.60;;;;;;;;;;6283912;28;20056;-65
2022/01/31 07:40:31;;;;;;;71.28;38.38;;;;;;;;;;6276813;28;20210;-64
2022/01/31 07:43:33;;;;;;;75.93;39.75;;;;;;;;;;6274772;28;20414;-64
2022/01/31 07:46:35;;;;;;;70.43;41.20;;;;;;;;;;6270440;28;20137;-66
2022/01/31 07:49:37;;;;;;;67.57;37.03;;;;;;;;;;6274151;28;20491;-65
2022/01/31 07:52:38;;;;;;;74.57;37.45;;;;;;;;;;6281911;28;20110;-65
2022/01/31 07:55:41;;;;;;;73.53;39.13;;;;;;;;;;6278579;28;20045;-65
2022/01/31 07:58:43;;;;;;;72.20;40.15;;;;;;;;;;6286759;28;20142;-62
2022/01/31 08:01:45;;;;;;;80.18;41.72;;;;;;;;;;6273206;28;20438;-64
2022/01/31 08:04:47;;;;;;;72.82;39.55;;;;;;;;;;6276782;28;20568;-65
2022/01/31 08:07:49;;;;;;;69.93;39.35;;;;;;;;;;6276339;28;20500;-63
2022/01/31 08:10:52;;;;;;;76.18;39.72;;;;;;;;;;6276124;28;20511;-63
2022/01/31 08:13:59;;;;;;;99.38;40.67;;;;;;;;;;6278120;28;20060;-63
2022/01/31 08:17:01;;;;;;;72.28;37.25;;;;;;;;;;6277282;28;20055;-63
2022/01/31 08:20:03;;;;;;;75.43;37.67;;;;;;;;;;6283931;28;20044;-65
2022/01/31 08:23:04;;;;;;;74.60;35.33;;;;;;;;;;6277074;28;20132;-64
2022/01/31 08:26:11;;;;;;;81.65;40.58;;;;;;;;;;6277030;28;20159;-65
2022/01/31 08:29:20;;;;;;;71.00;33.97;;;;;;;;;;6277729;28;20055;-65
2022/01/31 08:32:33;;;;;;;78.32;36.65;;;;;;;;;;6274501;28;20528;-65
2022/01/31 08:35:50;;;;;;;63.80;33.95;;;;;;;;;;6280708;28;20153;-65
2022/01/31 08:38:52;;;;;;;81.85;37.42;;;;;;;;;;6288547;28;20040;-65
2022/01/31 08:41:55;;;;;;;174.90;47.42;;;;;;;;;;6283734;28;20099;-64
2022/01/31 08:44:57;;;;;;;89.40;39.67;;;;;;;;;;6280603;28;20175;-65
2022/01/31 08:47:58;;;;;;;81.07;37.33;;;;;;;;;;6279423;28;20049;-65
2022/01/31 08:51:00;;;;;;;70.53;36.75;;;;;;;;;;6276337;28;20142;-66
2022/01/31 08:54:02;;;;;;;74.57;39.80;;;;;;;;;;6279762;28;20076;-65
2022/01/31 08:57:06;;;;;;;82.30;39.72;;;;;;;;;;6280945;28;20076;-64
2022/01/31 09:00:09;;;;;;;73.35;39.95;;;;;;;;;;6277109;28;20041;-65
2022/01/31 09:03:23;;;;;;;73.00;39.60;;;;;;;;;;6278504;28;20143;-65
2022/01/31 09:06:28;;;;;;;76.63;41.17;;;;;;;;;;6281026;28;20037;-65
2022/01/31 09:09:31;;;;;;;81.97;40.88;;;;;;;;;;6278149;28;20423;-64
2022/01/31 09:12:35;;;;;;;77.40;41.00;;;;;;;;;;6281720;28;20085;-64
2022/01/31 09:15:36;;;;;;;;;;;;;;;;;;6286094;28;20131;-65
2022/01/31 09:18:38;;;;;;;79.25;43.47;;;;;;;;;;6282584;28;20380;-65
2022/01/31 09:21:39;;;;;;;75.25;44.33;;;;;;;;;;6279432;28;20189;-65
2022/01/31 09:24:41;;;;;;;74.15;43.08;;;;;;;;;;6283237;28;20076;-65
2022/01/31 09:27:44;;;;;;;76.53;44.00;;;;;;;;;;6283638;28;20051;-66
2022/01/31 09:30:47;;;;;;;79.25;44.22;;;;;;;;;;6280153;28;20048;-64
2022/01/31 09:33:49;;;;;;;71.00;43.22;;;;;;;;;;6281084;28;20131;-65
2022/01/31 09:36:50;;;;;;;74.00;44.42;;;;;;;;;;6278253;28;20135;-65
2022/01/31 09:39:53;;;;;;;72.57;41.72;;;;;;;;;;6282452;28;20210;-65
2022/01/31 09:43:09;;;;;;;73.45;41.75;;;;;;;;;;6280025;28;20049;-65
2022/01/31 09:49:31;;;;;;;70.07;40.97;;;;;;;;;;6282589;28;20564;-65
2022/01/31 09:52:33;;;;;;;69.75;41.83;;;;;;;;;;6280575;28;20131;-65
2022/01/31 09:55:35;;;;;;;71.30;41.13;;;;;;;;;;6284209;28;20134;-65
2022/01/31 09:58:39;;;;;;;107.82;42.97;;;;;;;;;;6292621;28;20528;-66
2022/01/31 10:01:42;;;;;;;68.40;40.25;;;;;;;;;;6292214;28;20538;-65
2022/01/31 10:04:46;;;;;;;64.82;40.03;;;;;;;;;;6280939;28;20083;-65
2022/01/31 10:07:48;;;;;;;67.55;39.13;;;;;;;;;;6282953;28;20131;-65
2022/01/31 10:10:52;;;;;;;61.00;39.70;;;;;;;;;;6282319;28;20182;-65
2022/01/31 10:17:23;;;;;;;67.28;41.17;;;;;;;;;;6283623;28;20045;-65
2022/01/31 10:20:28;;;;;;;63.28;39.83;;;;;;;;;;6280305;28;20124;-65
2022/01/31 10:23:41;;;;;;;61.60;39.85;;;;;;;;;;6280197;28;20135;-65
2022/01/31 10:26:42;;;;;;;66.13;39.37;;;;;;;;;;6292258;28;20075;-65
2022/01/31 10:29:47;;;;;;;61.55;39.95;;;;;;;;;;6293441;28;20078;-65
2022/01/31 10:32:50;;;;;;;61.13;39.30;;;;;;;;;;6289226;28;20044;-65
2022/01/31 10:35:51;;;;;;;62.78;39.88;;;;;;;;;;6278686;28;20553;-65
2022/01/31 10:39:12;;;;;;;61.47;40.05;;;;;;;;;;6279374;28;20105;-65
2022/01/31 10:45:55;;;;;;;59.00;40.70;;;;;;;;;;6219959;28;20059;-65
2022/01/31 10:52:16;;;;;;;64.35;41.70;;;;;;;;;;6301817;28;20056;-65
2022/01/31 10:55:18;;;;;;;60.15;40.50;;;;;;;;;;6299035;28;20327;-65
2022/01/31 10:58:20;;;;;;;62.33;40.53;;;;;;;;;;6301371;28;20075;-65
2022/01/31 11:01:23;;;;;;;57.78;39.83;;;;;;;;;;6303489;28;20044;-65
2022/01/31 11:04:25;;;;;;;;;;;;;;;;;;6283608;28;20056;-66
2022/01/31 11:07:29;;;;;;;64.50;42.45;;;;;;;;;;6280994;28;20243;-66
2022/01/31 11:10:30;;;;;;;57.15;40.70;;;;;;;;;;6282468;28;20049;-65
2022/01/31 11:13:33;;;;;;;60.00;41.05;;;;;;;;;;6279495;28;20174;-65
2022/01/31 11:16:37;;;;;;;60.08;41.97;;;;;;;;;;6277939;28;20045;-65
2022/01/31 11:19:40;;;;;;;66.38;42.53;;;;;;;;;;6279132;28;20045;-67
2022/01/31 11:22:42;;;;;;;67.13;41.55;;;;;;;;;;6279319;28;20504;-65
2022/01/31 11:25:48;;;;;;;63.90;41.25;;;;;;;;;;6283087;28;20057;-65
2022/01/31 11:28:50;;;;;;;62.70;41.33;;;;;;;;;;6283676;28;20087;-65
2022/01/31 11:31:53;;;;;;;58.38;42.00;;;;;;;;;;6277193;28;20136;-65
2022/01/31 11:34:55;;;;;;;61.28;41.75;;;;;;;;;;6279116;28;20105;-65
2022/01/31 11:37:57;;;;;;;59.40;42.03;;;;;;;;;;6277098;28;20163;-65
2022/01/31 11:41:01;;;;;;;58.78;42.17;;;;;;;;;;6279428;28;20073;-65
2022/01/31 11:44:09;;;;;;;57.90;39.70;;;;;;;;;;6280298;28;20077;-65
2022/01/31 11:47:12;;;;;;;52.67;39.17;;;;;;;;;;6281697;28;20552;-65
2022/01/31 11:50:14;;;;;;;48.08;35.58;;;;;;;;;;6286975;28;20040;-65
2022/01/31 11:53:16;;;;;;;47.03;33.20;;;;;;;;;;6278529;28;20449;-65
2022/01/31 11:56:20;;;;;;;48.28;33.92;;;;;;;;;;6279627;28;20105;-65
2022/01/31 11:59:22;;;;;;;51.92;36.88;;;;;;;;;;6283124;28;20044;-65
2022/01/31 12:02:29;;;;;;;53.08;35.53;;;;;;;;;;6278240;28;20522;-65
2022/01/31 12:05:33;;;;;;;57.83;37.80;;;;;;;;;;6284060;28;20179;-65
2022/01/31 12:08:38;;;;;;;54.03;40.00;;;;;;;;;;6280872;28;20056;-65
2022/01/31 12:11:59;;;;;;;52.28;36.97;;;;;;;;;;6276542;28;20131;-65
2022/01/31 12:15:33;;;;;;;57.63;37.33;;;;;;;;;;6274893;28;20048;-65
2022/01/31 12:18:51;;;;;;;;;;;;;;;;;;6284811;28;20048;-65
2022/01/31 12:22:02;;;;;;;54.25;33.25;;;;;;;;;;6276499;28;19921;-65
2022/01/31 12:25:21;;;;;;;42.03;29.27;;;;;;;;;;6284035;28;20063;-64
2022/01/31 12:28:35;;;;;;;53.45;29.67;;;;;;;;;;6281082;28;20076;-65
2022/01/31 12:31:39;;;;;;;45.67;30.38;;;;;;;;;;6283273;28;20458;-65
2022/01/31 12:34:44;;;;;;;43.43;29.90;;;;;;;;;;6274905;28;20139;-64
2022/01/31 12:37:50;;;;;;;43.17;28.98;;;;;;;;;;6280544;28;20796;-65
2022/01/31 12:40:57;;;;;;;46.63;26.70;;;;;;;;;;6281746;28;20053;-64
2022/01/31 12:44:28;;;;;;;43.28;26.27;;;;;;;;;;6276726;28;20131;-65
2022/01/31 12:47:30;;;;;;;38.22;24.23;;;;;;;;;;6280202;28;20131;-64
2022/01/31 12:50:34;;;;;;;40.13;25.30;;;;;;;;;;6278876;28;20091;-65
2022/01/31 12:53:54;;;;;;;37.85;23.48;;;;;;;;;;6279206;28;20103;-64
2022/01/31 12:56:55;;;;;;;34.25;23.80;;;;;;;;;;6278608;28;20053;-64
2022/01/31 12:59:57;;;;;;;40.70;23.25;;;;;;;;;;6278608;28;20144;-65
2022/01/31 13:02:59;;;;;;;31.38;20.38;;;;;;;;;;6278979;28;20052;-65
2022/01/31 13:06:01;;;;;;;31.73;21.92;;;;;;;;;;6279310;28;20535;-63
2022/01/31 13:09:12;;;;;;;34.77;20.53;;;;;;;;;;6277353;28;20600;-64
2022/01/31 13:12:16;;;;;;;30.13;20.98;;;;;;;;;;6276889;28;20535;-64
2022/01/31 13:15:22;;;;;;;31.05;20.92;;;;;;;;;;6276001;28;20448;-64
2022/01/31 13:18:25;;;;;;;32.53;21.67;;;;;;;;;;6281684;28;20563;-64
2022/01/31 13:21:28;;;;;;;33.58;21.83;;;;;;;;;;6279262;28;20044;-64
2022/01/31 13:24:35;;;;;;;33.45;22.48;;;;;;;;;;6276483;28;20072;-64
2022/01/31 13:27:39;;;;;;;36.92;23.08;;;;;;;;;;6279004;28;20672;-65
2022/01/31 13:30:40;;;;;;;39.10;26.25;;;;;;;;;;6276986;28;20052;-65
2022/01/31 13:33:46;;;;;;;37.55;24.35;;;;;;;;;;6280560;28;20049;-64
2022/01/31 13:36:49;;;;;;;38.80;25.48;;;;;;;;;;6280587;28;20128;-66
2022/01/31 13:39:53;;;;;;;49.00;29.33;;;;;;;;;;6279570;28;20096;-63
2022/01/31 13:43:09;;;;;;;42.28;25.52;;;;;;;;;;6281716;28;20045;-64
2022/01/31 13:46:18;;;;;;;39.97;25.08;;;;;;;;;;6282889;28;20044;-64
2022/01/31 13:49:29;;;;;;;39.25;24.92;;;;;;;;;;6282091;28;20177;-64
2022/01/31 13:52:34;;;;;;;37.13;24.15;;;;;;;;;;6279101;28;20044;-64
2022/01/31 13:55:41;;;;;;;37.63;25.33;;;;;;;;;;6283235;28;20409;-64
2022/01/31 13:58:43;;;;;;;35.03;23.92;;;;;;;;;;6291710;28;20724;-65
2022/01/31 14:01:45;;;;;;;34.42;24.40;;;;;;;;;;6286273;28;20079;-65
2022/01/31 14:04:47;;;;;;;35.83;23.48;;;;;;;;;;6283957;28;20131;-64
2022/01/31 14:08:01;;;;;;;36.15;24.05;;;;;;;;;;6282961;28;20202;-64
2022/01/31 14:11:06;;;;;;;33.38;22.95;;;;;;;;;;6282882;28;20045;-64
2022/01/31 14:14:10;;;;;;;52.60;35.72;;;;;;;;;;6281387;28;20045;-64
2022/01/31 14:17:12;;;;;;;39.40;26.58;;;;;;;;;;6282673;28;20599;-64
2022/01/31 14:20:13;;;;;;;39.30;24.88;;;;;;;;;;6276021;28;20037;-65
2022/01/31 14:23:17;;;;;;;39.72;24.45;;;;;;;;;;6279894;28;20165;-65
2022/01/31 14:26:20;;;;;;;51.85;31.73;;;;;;;;;;6278456;28;20068;-64
2022/01/31 14:29:22;;;;;;;34.58;21.73;;;;;;;;;;6276821;28;20052;-65
2022/01/31 14:32:25;;;;;;;31.83;20.77;;;;;;;;;;6278079;28;20044;-65
2022/01/31 14:35:28;;;;;;;30.85;20.52;;;;;;;;;;6279307;28;20076;-65
2022/01/31 14:38:36;;;;;;;26.70;20.55;;;;;;;;;;6278696;28;20054;-65
2022/01/31 14:41:54;;;;;;;32.05;20.65;;;;;;;;;;6279535;28;20155;-65
2022/01/31 14:48:16;;;;;;;32.08;20.58;;;;;;;;;;6279731;28;20041;-65
2022/01/31 14:51:23;;;;;;;33.58;20.08;;;;;;;;;;6277456;28;20092;-65
2022/01/31 14:54:26;;;;;;;63.85;22.23;;;;;;;;;;6277747;28;20045;-65
2022/01/31 14:57:27;;;;;;;31.53;20.17;;;;;;;;;;6275423;28;20567;-66
2022/01/31 15:00:29;;;;;;;44.58;26.45;;;;;;;;;;6279617;28;20607;-64
2022/01/31 15:03:31;;;;;;;49.30;30.63;;;;;;;;;;6282246;28;20041;-64
2022/01/31 15:06:32;;;;;;;45.20;23.23;;;;;;;;;;6280296;28;20067;-64
2022/01/31 15:09:35;;;;;;;34.80;21.92;;;;;;;;;;6284353;28;20124;-65
2022/01/31 15:12:37;;;;;;;43.13;22.27;;;;;;;;;;6278688;28;20100;-64
2022/01/31 15:15:40;;;;;;;34.90;20.48;;;;;;;;;;6282805;28;20049;-64
2022/01/31 15:18:42;;;;;;;33.97;21.85;;;;;;;;;;6286585;28;20510;-64
2022/01/31 15:21:43;;;;;;;34.10;20.35;;;;;;;;;;6276982;28;20501;-65
2022/01/31 15:24:46;;;;;;;36.30;21.40;;;;;;;;;;6280952;28;20167;-65
2022/01/31 15:27:50;;;;;;;32.42;21.25;;;;;;;;;;6287821;28;20060;-65
2022/01/31 15:30:51;;;;;;;37.55;19.58;;;;;;;;;;6277800;28;20553;-65
2022/01/31 15:33:53;;;;;;;39.05;20.17;;;;;;;;;;6283396;28;20048;-64
2022/01/31 15:36:55;;;;;;;25.90;15.57;;;;;;;;;;6285432;28;20405;-64
2022/01/31 15:39:58;;;;;;;17.05;9.90;;;;;;;;;;6286405;28;20045;-64
2022/01/31 15:43:04;;;;;;;11.50;6.23;;;;;;;;;;6283191;28;20099;-64
2022/01/31 15:46:06;;;;;;;9.70;3.80;;;;;;;;;;6287622;28;20982;-64
2022/01/31 15:49:08;;;;;;;12.98;2.40;;;;;;;;;;6281864;28;20391;-65
2022/01/31 15:52:10;;;;;;;8.63;1.80;;;;;;;;;;6282167;28;20528;-64
2022/01/31 15:55:13;;;;;;;14.82;2.13;;;;;;;;;;6285947;28;20193;-65
2022/01/31 15:58:17;;;;;;;5.80;1.02;;;;;;;;;;6294531;28;20114;-64
2022/01/31 16:01:18;;;;;;;5.63;0.73;;;;;;;;;;6280307;28;20480;-64
2022/01/31 16:04:20;;;;;;;17.20;1.52;;;;;;;;;;6279791;28;20550;-65
2022/01/31 16:07:21;;;;;;;10.90;0.70;;;;;;;;;;6284676;28;20554;-65
2022/01/31 16:10:24;;;;;;;10.05;0.70;;;;;;;;;;6285754;28;20094;-64
2022/01/31 16:13:26;;;;;;;5.60;0.70;;;;;;;;;;6278939;28;20178;-64
2022/01/31 16:16:27;;;;;;;4.10;0.60;;;;;;;;;;6276373;28;20190;-64
2022/01/31 16:19:29;;;;;;;8.68;0.68;;;;;;;;;;6285753;28;20116;-64
2022/01/31 16:22:31;;;;;;;3.03;0.73;;;;;;;;;;6277674;28;20122;-63
2022/01/31 16:25:34;;;;;;;3.10;0.73;;;;;;;;;;6284789;28;20442;-64
2022/01/31 16:28:36;;;;;;;4.25;0.40;;;;;;;;;;6287162;28;20056;-63
2022/01/31 16:31:38;;;;;;;1.90;0.45;;;;;;;;;;6282934;28;20123;-63
2022/01/31 16:34:39;;;;;;;2.03;0.40;;;;;;;;;;6281162;28;20059;-64
2022/01/31 16:37:42;;;;;;;0.88;0.55;;;;;;;;;;6277253;28;20049;-64
2022/01/31 16:40:48;;;;;;;1.97;0.37;;;;;;;;;;6283438;28;20057;-64
2022/01/31 16:43:50;;;;;;;2.42;0.57;;;;;;;;;;6281159;28;20459;-64
2022/01/31 16:46:52;;;;;;;6.32;0.38;;;;;;;;;;6281694;28;20059;-64
2022/01/31 16:49:53;;;;;;;7.20;0.98;;;;;;;;;;6280881;28;20103;-63
2022/01/31 16:52:56;;;;;;;10.80;5.82;;;;;;;;;;6279025;28;20123;-64
2022/01/31 16:55:59;;;;;;;6.15;2.47;;;;;;;;;;6281252;28;20044;-64
2022/01/31 16:59:01;;;;;;;4.67;0.93;;;;;;;;;;6279739;28;20049;-64
2022/01/31 17:02:03;;;;;;;2.63;0.38;;;;;;;;;;6283062;28;20194;-63
2022/01/31 17:05:06;;;;;;;1.92;0.57;;;;;;;;;;6275922;28;20087;-63
2022/01/31 17:08:08;;;;;;;2.50;0.50;;;;;;;;;;6281234;28;20170;-63
2022/01/31 17:11:11;;;;;;;1.45;0.40;;;;;;;;;;6282154;28;20048;-63
2022/01/31 17:14:13;;;;;;;5.68;0.85;;;;;;;;;;6285608;28;20036;-63
2022/01/31 17:17:14;;;;;;;4.22;1.27;;;;;;;;;;6286344;28;20120;-63
2022/01/31 17:20:17;;;;;;;2.10;0.60;;;;;;;;;;6284886;28;20048;-63
2022/01/31 17:23:19;;;;;;;1.42;0.95;;;;;;;;;;6289939;28;20535;-64
2022/01/31 17:26:22;;;;;;;5.65;1.52;;;;;;;;;;6278960;28;20044;-64
2022/01/31 17:29:23;;;;;;;2.35;0.80;;;;;;;;;;6279631;28;20048;-64
2022/01/31 17:32:25;;;;;;;10.18;1.10;;;;;;;;;;6270167;28;20044;-64
2022/01/31 17:35:27;;;;;;;4.60;0.65;;;;;;;;;;6280216;28;20504;-64
2022/01/31 17:38:28;;;;;;;1.73;0.52;;;;;;;;;;6280925;28;20068;-64
2022/01/31 17:41:31;;;;;;;4.55;0.80;;;;;;;;;;6285603;28;20123;-64
2022/01/31 17:44:34;;;;;;;7.10;1.13;;;;;;;;;;6283235;28;20560;-63
2022/01/31 17:47:36;;;;;;;2.75;0.47;;;;;;;;;;6278821;28;20397;-64
2022/01/31 17:50:38;;;;;;;1.83;0.77;;;;;;;;;;6284533;28;20511;-63
2022/01/31 17:53:41;;;;;;;3.17;0.70;;;;;;;;;;6279623;28;20137;-63
2022/01/31 17:56:45;;;;;;;2.47;0.85;;;;;;;;;;6280237;28;20656;-63
2022/01/31 17:59:47;;;;;;;2.70;1.00;;;;;;;;;;6275403;28;20109;-63
2022/01/31 18:02:49;;;;;;;1.98;1.00;;;;;;;;;;6277114;28;20131;-64
2022/01/31 18:05:51;;;;;;;3.22;1.15;;;;;;;;;;6283631;28;20167;-64
2022/01/31 18:08:52;;;;;;;2.60;0.60;;;;;;;;;;6284475;28;20515;-64